Time;durP1;ratioP1;P1;durP2;ratioP2;P2;SDS_P1;SDS_P2;PMS_P1;PMS_P2;Temp;Humidity;BMP_temperature;BMP_pressure;BME280_temperature;BME280_humidity;BME280_pressure;Samples;Min_cycle;Max_cycle;Signal;HPM_P1;HPM_P2
2022/09/24 00:02:00;;;;;;;64.78;42.00;;;;;;;;;;5054188;28;20047;-80
2022/09/24 00:04:26;;;;;;;65.63;42.92;;;;;;;;;;5054160;28;20049;-79
2022/09/24 00:06:53;;;;;;;63.30;42.90;;;;;;;;;;5049855;28;20044;-79
2022/09/24 00:09:20;;;;;;;63.97;43.47;;;;;;;;;;5034129;28;20120;-79
2022/09/24 00:11:48;;;;;;;63.60;43.50;;;;;;;;;;5034068;28;20046;-80
2022/09/24 00:14:15;;;;;;;70.95;45.17;;;;;;;;;;5054446;28;20128;-80
2022/09/24 00:16:42;;;;;;;66.22;45.03;;;;;;;;;;5054168;28;20041;-80
2022/09/24 00:19:09;;;;;;;70.90;45.05;;;;;;;;;;5053667;28;20041;-80
2022/09/24 00:21:36;;;;;;;66.88;44.33;;;;;;;;;;5053479;28;20490;-80
2022/09/24 00:24:06;;;;;;;58.25;41.65;;;;;;;;;;5049779;28;20067;-80
2022/09/24 00:26:50;;;;;;;66.90;44.90;;;;;;;;;;5033873;28;20061;-80
2022/09/24 00:29:20;;;;;;;70.10;44.80;;;;;;;;;;5033655;28;20088;-80
2022/09/24 00:31:47;;;;;;;70.95;45.17;;;;;;;;;;5033423;28;20045;-80
2022/09/24 00:34:13;;;;;;;62.25;42.78;;;;;;;;;;5050114;28;20046;-80
2022/09/24 00:36:39;;;;;;;63.78;42.15;;;;;;;;;;5043360;28;20056;-80
2022/09/24 00:39:06;;;;;;;55.40;40.10;;;;;;;;;;5042518;28;20090;-80
2022/09/24 00:41:33;;;;;;;63.13;42.22;;;;;;;;;;5053216;28;20517;-80
2022/09/24 00:43:59;;;;;;;70.53;43.38;;;;;;;;;;5053332;28;20041;-80
2022/09/24 00:46:38;;;;;;;69.35;43.47;;;;;;;;;;5053375;28;20069;-80
2022/09/24 00:49:15;;;;;;;66.03;44.13;;;;;;;;;;5052241;28;20045;-80
2022/09/24 00:51:42;;;;;;;56.97;41.20;;;;;;;;;;5052741;28;20049;-80
2022/09/24 00:54:10;;;;;;;59.85;40.30;;;;;;;;;;5053197;28;20158;-80
2022/09/24 00:56:37;;;;;;;55.58;37.53;;;;;;;;;;5053870;28;20709;-80
2022/09/24 00:59:05;;;;;;;53.03;35.28;;;;;;;;;;5055418;28;20056;-80
2022/09/24 01:01:31;;;;;;;49.83;33.55;;;;;;;;;;5057022;28;20041;-80
2022/09/24 01:03:58;;;;;;;53.55;38.25;;;;;;;;;;5042281;28;20057;-80
2022/09/24 01:06:24;;;;;;;51.63;34.60;;;;;;;;;;5037372;28;20038;-80
2022/09/24 01:08:51;;;;;;;44.25;31.08;;;;;;;;;;5037283;28;20041;-80
2022/09/24 01:11:20;;;;;;;39.33;24.55;;;;;;;;;;5036917;28;20103;-80
2022/09/24 01:13:47;;;;;;;32.65;21.35;;;;;;;;;;5037572;28;20056;-80
2022/09/24 01:16:32;;;;;;;31.10;18.77;;;;;;;;;;5036936;28;20051;-80
2022/09/24 01:19:08;;;;;;;25.13;14.82;;;;;;;;;;5051971;28;20406;-80
2022/09/24 01:21:34;;;;;;;;;;;;;;;;;;5037361;28;20129;-80
2022/09/24 01:24:00;;;;;;;8.63;3.90;;;;;;;;;;5036496;28;19960;-80
2022/09/24 01:26:26;;;;;;;9.30;4.05;;;;;;;;;;5035389;28;20099;-80
2022/09/24 01:28:54;;;;;;;10.23;3.67;;;;;;;;;;5056865;28;20515;-80
2022/09/24 01:31:25;;;;;;;9.27;3.15;;;;;;;;;;5056781;28;20049;-80
2022/09/24 01:33:52;;;;;;;6.70;3.00;;;;;;;;;;5056812;28;20045;-80
2022/09/24 01:36:20;;;;;;;7.90;3.05;;;;;;;;;;5056558;28;20045;-80
2022/09/24 01:38:47;;;;;;;9.30;3.17;;;;;;;;;;5056736;28;20048;-80
2022/09/24 01:41:14;;;;;;;9.20;3.38;;;;;;;;;;5056845;28;20167;-80
2022/09/24 01:43:41;;;;;;;7.07;3.20;;;;;;;;;;5051773;28;20124;-80
2022/09/24 01:46:09;;;;;;;8.85;3.20;;;;;;;;;;5065172;28;20079;-80
2022/09/24 01:48:38;;;;;;;7.57;3.25;;;;;;;;;;5067099;28;20051;-80
2022/09/24 01:51:04;;;;;;;10.23;3.38;;;;;;;;;;5056345;28;20060;-80
2022/09/24 01:53:36;;;;;;;10.52;3.35;;;;;;;;;;5045923;28;20063;-80
2022/09/24 01:56:09;;;;;;;13.95;3.45;;;;;;;;;;5042553;28;20033;-80
2022/09/24 01:58:38;;;;;;;8.50;3.33;;;;;;;;;;5056796;28;20045;-80
2022/09/24 02:01:10;;;;;;;7.75;3.03;;;;;;;;;;5047596;28;20120;-80
2022/09/24 02:03:42;;;;;;;8.40;3.00;;;;;;;;;;5036819;28;20122;-80
2022/09/24 02:06:12;;;;;;;10.02;3.28;;;;;;;;;;5034906;28;20110;-80
2022/09/24 02:08:39;;;;;;;10.68;3.30;;;;;;;;;;5036006;28;20156;-80
2022/09/24 02:11:13;;;;;;;8.10;3.22;;;;;;;;;;5035941;28;20518;-80
2022/09/24 02:13:45;;;;;;;8.77;3.45;;;;;;;;;;5046437;28;20146;-80
2022/09/24 02:16:13;;;;;;;9.80;3.13;;;;;;;;;;5055349;28;20060;-80
2022/09/24 02:18:40;;;;;;;9.52;3.20;;;;;;;;;;5055085;28;20127;-80
2022/09/24 02:21:09;;;;;;;10.95;3.40;;;;;;;;;;5053585;28;20045;-80
2022/09/24 02:23:36;;;;;;;11.10;3.10;;;;;;;;;;5037548;28;20045;-80
2022/09/24 02:26:03;;;;;;;9.85;2.90;;;;;;;;;;5036308;28;20514;-80
2022/09/24 02:28:31;;;;;;;7.88;3.38;;;;;;;;;;5056890;28;20073;-80
2022/09/24 02:31:07;;;;;;;11.73;3.30;;;;;;;;;;5035821;28;20513;-80
2022/09/24 02:36:21;;;;;;;19.02;3.55;;;;;;;;;;5035330;28;20498;-80
2022/09/24 02:38:47;;;;;;;10.38;3.20;;;;;;;;;;5035396;28;20380;-80
2022/09/24 02:41:14;;;;;;;12.13;3.30;;;;;;;;;;5041734;28;20047;-80
2022/09/24 02:43:40;;;;;;;10.20;2.92;;;;;;;;;;5055363;28;20044;-80
2022/09/24 02:46:10;;;;;;;10.88;2.85;;;;;;;;;;5055302;28;20049;-80
2022/09/24 02:48:36;;;;;;;9.98;2.80;;;;;;;;;;5055032;28;20454;-80
2022/09/24 02:51:03;;;;;;;7.78;2.67;;;;;;;;;;5055339;28;20057;-80
2022/09/24 02:53:29;;;;;;;12.25;3.10;;;;;;;;;;5055125;28;20123;-80
2022/09/24 02:55:57;;;;;;;10.50;3.45;;;;;;;;;;5054068;28;20120;-80
2022/09/24 02:58:24;;;;;;;9.10;2.72;;;;;;;;;;5047133;28;20046;-80
2022/09/24 03:00:50;;;;;;;9.38;2.97;;;;;;;;;;5041594;28;20041;-80
2022/09/24 03:03:16;;;;;;;12.43;3.08;;;;;;;;;;5044188;28;20080;-80
2022/09/24 03:05:43;;;;;;;10.77;3.20;;;;;;;;;;5038154;28;20069;-80
2022/09/24 03:08:09;;;;;;;8.73;2.80;;;;;;;;;;5035363;28;20057;-80
2022/09/24 03:10:35;;;;;;;8.68;3.00;;;;;;;;;;5034827;28;20045;-80
2022/09/24 03:13:01;;;;;;;7.00;2.75;;;;;;;;;;5058908;28;20124;-80
2022/09/24 03:15:28;;;;;;;9.07;2.67;;;;;;;;;;5054848;28;20068;-80
2022/09/24 03:17:54;;;;;;;9.93;2.88;;;;;;;;;;5054683;28;20052;-80
2022/09/24 03:20:23;;;;;;;9.13;2.70;;;;;;;;;;5054457;28;20505;-80
2022/09/24 03:22:52;;;;;;;8.93;3.00;;;;;;;;;;5054167;28;20056;-80
2022/09/24 03:25:19;;;;;;;12.98;3.42;;;;;;;;;;5054279;28;20037;-80
2022/09/24 03:27:45;;;;;;;8.90;2.90;;;;;;;;;;5045880;28;20120;-80
2022/09/24 03:32:56;;;;;;;14.80;3.80;;;;;;;;;;5034306;28;20359;-80
2022/09/24 03:35:22;;;;;;;8.18;2.70;;;;;;;;;;5034403;28;20068;-80
2022/09/24 03:37:51;;;;;;;12.55;3.53;;;;;;;;;;5034331;28;20049;-80
2022/09/24 03:40:17;;;;;;;10.05;2.60;;;;;;;;;;5034382;28;20037;-80
2022/09/24 03:42:43;;;;;;;7.43;2.28;;;;;;;;;;5034164;28;20077;-80
2022/09/24 03:45:09;;;;;;;5.35;1.80;;;;;;;;;;5033698;28;20529;-80
2022/09/24 03:47:36;;;;;;;4.93;1.92;;;;;;;;;;5033888;28;20049;-80
2022/09/24 03:50:02;;;;;;;7.38;2.50;;;;;;;;;;5034085;28;20053;-80
2022/09/24 03:52:28;;;;;;;7.30;2.00;;;;;;;;;;5033968;28;20057;-80
2022/09/24 03:54:54;;;;;;;7.63;2.30;;;;;;;;;;5040990;28;20041;-80
2022/09/24 03:57:21;;;;;;;5.25;2.15;;;;;;;;;;5033967;28;20041;-80
2022/09/24 03:59:47;;;;;;;6.60;2.13;;;;;;;;;;5039488;28;20083;-80
2022/09/24 04:02:13;;;;;;;5.00;2.40;;;;;;;;;;5053580;28;20111;-80
2022/09/24 04:04:39;;;;;;;9.45;2.55;;;;;;;;;;5053782;28;20049;-80
2022/09/24 04:07:05;;;;;;;8.23;2.78;;;;;;;;;;5054027;28;20437;-80
2022/09/24 04:09:34;;;;;;;10.10;2.50;;;;;;;;;;5053257;28;20394;-80
2022/09/24 04:12:01;;;;;;;8.02;2.30;;;;;;;;;;5053659;28;20080;-80
2022/09/24 04:14:27;;;;;;;4.72;2.17;;;;;;;;;;5047532;28;20095;-80
2022/09/24 04:16:53;;;;;;;6.05;2.70;;;;;;;;;;5042364;28;20045;-80
2022/09/24 04:19:19;;;;;;;7.50;2.55;;;;;;;;;;5052338;28;20059;-80
2022/09/24 04:21:45;;;;;;;7.03;2.10;;;;;;;;;;5036839;28;20067;-80
2022/09/24 04:24:12;;;;;;;7.22;2.95;;;;;;;;;;5033285;28;20383;-80
2022/09/24 04:26:38;;;;;;;10.05;2.83;;;;;;;;;;5039419;28;20041;-80
2022/09/24 04:29:05;;;;;;;6.57;2.45;;;;;;;;;;5041079;28;20490;-80
2022/09/24 04:31:32;;;;;;;7.45;2.50;;;;;;;;;;5033215;28;20502;-80
2022/09/24 04:33:58;;;;;;;7.28;2.38;;;;;;;;;;5058194;28;20056;-80
2022/09/24 04:36:24;;;;;;;7.38;2.30;;;;;;;;;;5057059;28;20382;-80
2022/09/24 04:38:50;;;;;;;9.55;2.70;;;;;;;;;;5058442;28;20037;-80
2022/09/24 04:41:17;;;;;;;8.23;2.60;;;;;;;;;;5057361;28;20064;-80
2022/09/24 04:43:45;;;;;;;9.00;3.30;;;;;;;;;;5057170;28;20041;-80
2022/09/24 04:46:12;;;;;;;8.60;2.88;;;;;;;;;;5057256;28;20072;-80
2022/09/24 04:48:38;;;;;;;6.80;2.30;;;;;;;;;;5057426;28;20037;-80
2022/09/24 04:51:09;;;;;;;10.80;2.53;;;;;;;;;;5057616;28;20105;-80
2022/09/24 04:53:36;;;;;;;10.73;2.22;;;;;;;;;;5057248;28;20040;-80
2022/09/24 04:56:10;;;;;;;7.57;2.38;;;;;;;;;;5045868;28;20038;-80
2022/09/24 04:58:36;;;;;;;8.48;2.30;;;;;;;;;;5037222;28;20041;-80
2022/09/24 05:01:02;;;;;;;12.13;3.00;;;;;;;;;;5037130;28;20087;-80
2022/09/24 05:03:28;;;;;;;7.18;2.40;;;;;;;;;;5037100;28;20045;-80
2022/09/24 05:05:55;;;;;;;7.28;3.03;;;;;;;;;;5037157;28;20041;-80
2022/09/24 05:08:21;;;;;;;6.53;2.47;;;;;;;;;;5035802;28;20072;-81
2022/09/24 05:10:47;;;;;;;8.32;2.35;;;;;;;;;;5037215;28;20042;-80
2022/09/24 05:13:13;;;;;;;9.18;2.33;;;;;;;;;;5037328;28;20057;-80
2022/09/24 05:15:39;;;;;;;11.88;2.92;;;;;;;;;;5043644;28;20049;-81
2022/09/24 05:18:14;;;;;;;5.95;2.10;;;;;;;;;;5043543;28;20050;-80
2022/09/24 05:20:40;;;;;;;6.40;2.20;;;;;;;;;;5040200;28;20387;-80
2022/09/24 05:23:07;;;;;;;5.25;2.20;;;;;;;;;;5037156;28;20474;-81
2022/09/24 05:27:07;;;;;;;5.65;2.20;;;;;;;;;;5037084;28;20096;-81
2022/09/24 05:28:20;;;;;;;5.28;1.90;;;;;;;;;;5036672;28;20085;-81
2022/09/24 05:30:46;;;;;;;6.15;2.30;;;;;;;;;;5036299;28;20466;-81
2022/09/24 05:33:13;;;;;;;6.25;1.95;;;;;;;;;;5049727;28;20076;-81
2022/09/24 05:35:39;;;;;;;7.43;1.90;;;;;;;;;;5055567;28;20562;-81
2022/09/24 05:38:05;;;;;;;5.13;2.10;;;;;;;;;;5036324;28;20379;-81
2022/09/24 05:40:46;;;;;;;6.47;1.98;;;;;;;;;;5036397;28;20508;-81
2022/09/24 05:43:12;;;;;;;5.65;1.92;;;;;;;;;;5036371;28;20041;-81
2022/09/24 05:45:38;;;;;;;6.03;2.03;;;;;;;;;;5061160;28;20037;-81
2022/09/24 05:48:05;;;;;;;8.63;2.60;;;;;;;;;;5035192;28;20056;-81
2022/09/24 05:50:33;;;;;;;6.38;2.65;;;;;;;;;;5036416;28;20391;-82
2022/09/24 05:53:03;;;;;;;9.30;2.30;;;;;;;;;;5038868;28;20053;-86
2022/09/24 05:55:29;;;;;;;10.20;2.58;;;;;;;;;;5036938;28;20076;-81
2022/09/24 05:57:55;;;;;;;7.57;2.25;;;;;;;;;;5036334;28;20128;-82
2022/09/24 06:00:21;;;;;;;7.35;2.22;;;;;;;;;;5037043;28;20092;-77
2022/09/24 06:02:49;;;;;;;8.88;2.72;;;;;;;;;;5037413;28;20045;-81
2022/09/24 06:05:15;;;;;;;7.80;2.28;;;;;;;;;;5038189;28;20048;-81
2022/09/24 06:07:41;;;;;;;12.43;2.63;;;;;;;;;;5056051;28;20041;-80
2022/09/24 06:10:08;;;;;;;11.50;2.80;;;;;;;;;;5066734;28;20055;-79
2022/09/24 06:12:34;;;;;;;6.72;2.25;;;;;;;;;;5060521;28;20490;-80
2022/09/24 06:15:01;;;;;;;6.22;2.13;;;;;;;;;;5042547;28;20041;-80
2022/09/24 06:17:27;;;;;;;10.23;3.10;;;;;;;;;;5035821;28;20119;-80
2022/09/24 06:19:54;;;;;;;8.57;3.05;;;;;;;;;;5036395;28;20076;-80
2022/09/24 06:22:20;;;;;;;10.68;3.25;;;;;;;;;;5037305;28;20103;-80
2022/09/24 06:24:46;;;;;;;9.52;2.78;;;;;;;;;;5036587;28;20128;-80
2022/09/24 06:27:12;;;;;;;9.05;2.65;;;;;;;;;;5036173;28;20045;-80
2022/09/24 06:29:38;;;;;;;8.23;2.78;;;;;;;;;;5039012;28;20069;-81
2022/09/24 06:32:04;;;;;;;11.75;2.85;;;;;;;;;;5035874;28;20041;-81
2022/09/24 06:34:30;;;;;;;9.93;2.80;;;;;;;;;;5037366;28;20057;-80
2022/09/24 06:36:56;;;;;;;9.65;2.30;;;;;;;;;;5043583;28;20042;-80
2022/09/24 06:39:24;;;;;;;7.90;2.45;;;;;;;;;;5038171;28;20184;-81
2022/09/24 06:41:51;;;;;;;7.97;2.65;;;;;;;;;;5037297;28;20049;-80
2022/09/24 06:44:18;;;;;;;8.45;3.10;;;;;;;;;;5038928;28;20138;-79
2022/09/24 06:46:44;;;;;;;9.95;2.20;;;;;;;;;;5035675;28;20601;-78
2022/09/24 06:49:11;;;;;;;9.20;2.70;;;;;;;;;;5035909;28;20041;-80
2022/09/24 06:51:37;;;;;;;7.43;2.45;;;;;;;;;;5037259;28;20482;-80
2022/09/24 06:54:03;;;;;;;10.73;2.65;;;;;;;;;;5035806;28;20072;-80
2022/09/24 06:56:29;;;;;;;11.43;2.33;;;;;;;;;;5034618;28;20132;-79
2022/09/24 06:58:56;;;;;;;10.07;2.58;;;;;;;;;;5040564;28;20099;-80
2022/09/24 07:01:22;;;;;;;7.50;2.97;;;;;;;;;;5039629;28;20045;-80
2022/09/24 07:03:48;;;;;;;10.63;2.80;;;;;;;;;;5049795;28;20532;-80
2022/09/24 07:06:14;;;;;;;8.82;2.55;;;;;;;;;;5055085;28;20124;-83
2022/09/24 07:08:40;;;;;;;17.08;3.22;;;;;;;;;;5055031;28;20088;-79
2022/09/24 07:11:07;;;;;;;14.57;2.55;;;;;;;;;;5038395;28;20060;-83
2022/09/24 07:13:34;;;;;;;10.80;2.92;;;;;;;;;;5048135;28;20045;-80
2022/09/24 07:16:00;;;;;;;10.43;2.72;;;;;;;;;;5056843;28;20041;-83
2022/09/24 07:18:26;;;;;;;8.52;2.42;;;;;;;;;;5052177;28;20506;-83
2022/09/24 07:20:53;;;;;;;14.18;3.55;;;;;;;;;;5054063;28;20127;-83
2022/09/24 07:23:20;;;;;;;11.15;2.97;;;;;;;;;;5055615;28;20436;-83
2022/09/24 07:25:46;;;;;;;12.65;2.95;;;;;;;;;;5056520;28;20041;-83
2022/09/24 07:28:14;;;;;;;7.47;2.58;;;;;;;;;;5054421;28;20559;-83
2022/09/24 07:30:40;;;;;;;8.70;2.75;;;;;;;;;;5055056;28;20041;-83
2022/09/24 07:33:06;;;;;;;12.45;2.63;;;;;;;;;;5048692;28;20128;-83
2022/09/24 07:35:33;;;;;;;7.25;2.33;;;;;;;;;;5034757;28;20383;-83
2022/09/24 07:38:00;;;;;;;9.93;2.55;;;;;;;;;;5033873;28;20042;-83
2022/09/24 07:40:26;;;;;;;8.68;2.40;;;;;;;;;;5035115;28;20081;-82
2022/09/24 07:42:54;;;;;;;10.38;3.10;;;;;;;;;;5035083;28;20077;-83
2022/09/24 07:45:20;;;;;;;9.85;2.50;;;;;;;;;;5034581;28;20075;-83
2022/09/24 07:47:47;;;;;;;7.75;2.72;;;;;;;;;;5038958;28;20052;-83
2022/09/24 07:50:13;;;;;;;10.57;2.50;;;;;;;;;;5034423;28;20077;-83
2022/09/24 07:52:39;;;;;;;8.30;2.10;;;;;;;;;;5053951;28;20517;-83
2022/09/24 07:55:07;;;;;;;9.88;2.50;;;;;;;;;;5054586;28;20052;-83
2022/09/24 07:57:33;;;;;;;9.43;2.60;;;;;;;;;;5053917;28;20053;-83
2022/09/24 07:59:59;;;;;;;10.27;3.30;;;;;;;;;;5054007;28;20498;-82
2022/09/24 08:02:25;;;;;;;9.25;2.58;;;;;;;;;;5054063;28;20051;-83
2022/09/24 08:04:51;;;;;;;8.63;2.88;;;;;;;;;;5042216;28;20041;-82
2022/09/24 08:07:17;;;;;;;8.13;2.30;;;;;;;;;;5034986;28;20094;-83
2022/09/24 08:09:43;;;;;;;6.82;3.17;;;;;;;;;;5034465;28;20498;-82
2022/09/24 08:12:11;;;;;;;10.40;2.70;;;;;;;;;;5035830;28;20509;-82
2022/09/24 08:14:37;;;;;;;11.93;2.97;;;;;;;;;;5034635;28;20088;-82
2022/09/24 08:17:06;;;;;;;7.90;2.47;;;;;;;;;;5034819;28;20324;-82
2022/09/24 08:19:33;;;;;;;11.15;2.65;;;;;;;;;;5034859;28;20122;-83
2022/09/24 08:21:59;;;;;;;7.55;2.47;;;;;;;;;;5032798;28;20052;-83
2022/09/24 08:24:25;;;;;;;9.25;2.28;;;;;;;;;;5033973;28;20122;-82
2022/09/24 08:26:51;;;;;;;4.75;2.13;;;;;;;;;;5034850;28;20049;-83
2022/09/24 08:29:17;;;;;;;8.77;2.50;;;;;;;;;;5034856;28;20363;-83
2022/09/24 08:31:43;;;;;;;7.40;2.00;;;;;;;;;;5034084;28;20124;-83
2022/09/24 08:34:10;;;;;;;4.90;1.90;;;;;;;;;;5034307;28;20060;-82
2022/09/24 08:36:38;;;;;;;7.10;2.25;;;;;;;;;;5035321;28;20421;-82
2022/09/24 08:39:06;;;;;;;7.38;2.33;;;;;;;;;;5034420;28;20457;-82
2022/09/24 08:41:47;;;;;;;7.35;2.03;;;;;;;;;;5034306;28;20045;-82
2022/09/24 08:47:22;;;;;;;;;;;;;;;;;;5044260;28;20053;-82
2022/09/24 08:49:50;;;;;;;11.40;2.53;;;;;;;;;;5052777;28;19921;-82
2022/09/24 08:52:23;;;;;;;9.23;2.70;;;;;;;;;;5037010;28;20056;-83
2022/09/24 08:54:50;;;;;;;5.75;2.35;;;;;;;;;;5035120;28;20124;-83
2022/09/24 08:57:17;;;;;;;6.05;2.42;;;;;;;;;;5034454;28;20041;-82
2022/09/24 08:59:46;;;;;;;5.85;2.60;;;;;;;;;;5036996;28;20046;-82
2022/09/24 09:02:24;;;;;;;6.13;2.22;;;;;;;;;;5037012;28;20489;-82
2022/09/24 09:04:54;;;;;;;8.98;2.72;;;;;;;;;;5056196;28;20095;-82
2022/09/24 09:07:22;;;;;;;9.60;2.35;;;;;;;;;;5054234;28;20056;-82
2022/09/24 09:10:00;;;;;;;7.50;2.00;;;;;;;;;;5056307;28;20041;-83
2022/09/24 09:12:37;;;;;;;8.50;2.70;;;;;;;;;;5059065;28;20116;-82
2022/09/24 09:15:30;;;;;;;8.50;2.40;;;;;;;;;;5054834;28;20044;-82
2022/09/24 09:17:56;;;;;;;10.07;2.30;;;;;;;;;;5032997;28;20050;-82
2022/09/24 09:20:34;;;;;;;10.63;2.80;;;;;;;;;;5039193;28;20100;-82
2022/09/24 09:23:05;;;;;;;9.05;2.65;;;;;;;;;;5041763;28;20049;-82
2022/09/24 09:25:35;;;;;;;8.48;2.28;;;;;;;;;;5041533;28;20053;-82
2022/09/24 09:28:13;;;;;;;11.27;2.35;;;;;;;;;;5042273;28;20045;-82
2022/09/24 09:30:42;;;;;;;9.73;2.53;;;;;;;;;;5041180;28;20049;-82
2022/09/24 09:33:09;;;;;;;6.28;2.25;;;;;;;;;;5051388;28;20068;-82
2022/09/24 09:35:47;;;;;;;7.05;2.25;;;;;;;;;;5060084;28;20448;-82
2022/09/24 09:38:22;;;;;;;8.43;2.30;;;;;;;;;;5061713;28;20052;-82
2022/09/24 09:40:52;;;;;;;5.97;2.40;;;;;;;;;;5064021;28;20045;-82
2022/09/24 09:43:19;;;;;;;8.10;2.30;;;;;;;;;;5062193;28;20167;-82
2022/09/24 09:46:03;;;;;;;8.95;2.03;;;;;;;;;;5062724;28;20478;-82
2022/09/24 09:48:36;;;;;;;10.18;2.78;;;;;;;;;;5050803;28;20049;-82
2022/09/24 09:51:04;;;;;;;6.78;1.85;;;;;;;;;;5040170;28;20128;-82
2022/09/24 09:53:31;;;;;;;6.88;2.10;;;;;;;;;;5040768;28;20132;-82
2022/09/24 09:56:00;;;;;;;8.60;2.40;;;;;;;;;;5042207;28;20117;-82
2022/09/24 09:58:31;;;;;;;7.97;2.28;;;;;;;;;;5055413;28;20047;-82
2022/09/24 10:01:06;;;;;;;8.20;2.83;;;;;;;;;;5043007;28;20052;-82
2022/09/24 10:03:34;;;;;;;9.00;2.25;;;;;;;;;;5058693;28;20482;-82
2022/09/24 10:06:01;;;;;;;8.40;2.20;;;;;;;;;;5060641;28;20068;-83
2022/09/24 10:08:27;;;;;;;8.75;2.25;;;;;;;;;;5046803;28;20041;-81
2022/09/24 10:11:00;;;;;;;6.90;2.80;;;;;;;;;;5042679;28;20048;-80
2022/09/24 10:13:27;;;;;;;14.77;2.47;;;;;;;;;;5041331;28;20163;-81
2022/09/24 10:15:57;;;;;;;7.15;2.40;;;;;;;;;;5037292;28;20399;-80
2022/09/24 10:18:34;;;;;;;8.23;2.33;;;;;;;;;;5051441;28;20116;-81
2022/09/24 10:21:10;;;;;;;6.93;2.25;;;;;;;;;;5034615;28;20053;-81
2022/09/24 10:23:41;;;;;;;7.80;2.05;;;;;;;;;;5036240;28;20121;-80
2022/09/24 10:26:08;;;;;;;6.72;1.92;;;;;;;;;;5035951;28;20037;-80
2022/09/24 10:31:25;;;;;;;6.72;2.30;;;;;;;;;;5038884;28;20072;-79
2022/09/24 10:33:54;;;;;;;7.43;2.15;;;;;;;;;;5040814;28;20065;-84
2022/09/24 10:36:26;;;;;;;5.10;2.08;;;;;;;;;;5037964;28;20520;-83
2022/09/24 10:39:03;;;;;;;6.60;1.98;;;;;;;;;;5041583;28;20101;-82
2022/09/24 10:41:30;;;;;;;6.40;2.30;;;;;;;;;;5043311;28;20107;-81
2022/09/24 10:43:57;;;;;;;7.85;2.28;;;;;;;;;;5036581;28;20378;-79
2022/09/24 10:46:39;;;;;;;7.15;1.77;;;;;;;;;;5035090;28;20045;-79
2022/09/24 10:49:10;;;;;;;4.38;1.63;;;;;;;;;;5017273;28;20465;-79
2022/09/24 10:51:36;;;;;;;7.07;2.60;;;;;;;;;;5035169;28;20060;-79
2022/09/24 10:54:17;;;;;;;5.80;1.90;;;;;;;;;;5034862;28;20045;-79
2022/09/24 10:56:47;;;;;;;5.45;1.95;;;;;;;;;;5035612;28;20049;-78
2022/09/24 10:59:32;;;;;;;7.22;1.90;;;;;;;;;;5037788;28;20046;-79
2022/09/24 11:02:07;;;;;;;6.93;2.55;;;;;;;;;;5035112;28;20052;-79
2022/09/24 11:04:33;;;;;;;6.15;1.83;;;;;;;;;;5046853;28;20079;-79
2022/09/24 11:07:06;;;;;;;5.82;2.08;;;;;;;;;;5054331;28;20501;-79
2022/09/24 11:09:46;;;;;;;6.20;2.10;;;;;;;;;;5069837;28;20056;-79
2022/09/24 11:12:34;;;;;;;4.10;1.80;;;;;;;;;;5036169;28;20493;-79
2022/09/24 11:15:25;;;;;;;5.20;1.95;;;;;;;;;;5054088;28;20044;-79
2022/09/24 11:17:51;;;;;;;6.00;1.75;;;;;;;;;;5054705;28;20049;-79
2022/09/24 11:20:17;;;;;;;5.20;1.75;;;;;;;;;;5054671;28;20469;-79
2022/09/24 11:22:49;;;;;;;4.00;1.75;;;;;;;;;;5054222;28;20041;-79
2022/09/24 11:25:23;;;;;;;5.80;1.88;;;;;;;;;;5053902;28;20506;-79
2022/09/24 11:27:52;;;;;;;8.63;1.88;;;;;;;;;;5044002;28;20049;-79
2022/09/24 11:30:18;;;;;;;4.53;1.73;;;;;;;;;;5034200;28;20490;-79
2022/09/24 11:32:50;;;;;;;6.95;2.00;;;;;;;;;;5034208;28;20505;-79
2022/09/24 11:35:22;;;;;;;4.45;1.48;;;;;;;;;;5032823;28;20088;-79
2022/09/24 11:38:01;;;;;;;6.18;2.10;;;;;;;;;;5034072;28;20041;-79
2022/09/24 11:40:30;;;;;;;4.78;1.83;;;;;;;;;;5033748;28;20589;-79
2022/09/24 11:42:57;;;;;;;5.35;2.10;;;;;;;;;;5033375;28;20045;-79
2022/09/24 11:45:29;;;;;;;5.20;2.13;;;;;;;;;;5034028;28;20056;-79
2022/09/24 11:48:01;;;;;;;6.88;2.10;;;;;;;;;;5033799;28;20048;-79
2022/09/24 11:50:40;;;;;;;4.60;1.70;;;;;;;;;;5045674;28;20052;-79
2022/09/24 11:53:10;;;;;;;7.63;2.35;;;;;;;;;;5053890;28;20066;-79
2022/09/24 11:55:41;;;;;;;7.00;2.28;;;;;;;;;;5053871;28;20040;-79
2022/09/24 11:58:15;;;;;;;7.75;2.00;;;;;;;;;;5036251;28;20045;-79
2022/09/24 12:00:53;;;;;;;5.90;1.90;;;;;;;;;;5034173;28;20182;-79
2022/09/24 12:03:22;;;;;;;6.75;2.13;;;;;;;;;;5046699;28;20124;-79
2022/09/24 12:05:53;;;;;;;10.05;2.20;;;;;;;;;;5053917;28;20036;-79
2022/09/24 12:08:32;;;;;;;8.02;2.45;;;;;;;;;;5053628;28;20041;-79
2022/09/24 12:11:10;;;;;;;9.90;2.75;;;;;;;;;;5051916;28;20551;-79
2022/09/24 12:13:40;;;;;;;9.80;2.15;;;;;;;;;;5053617;28;20117;-79
2022/09/24 12:16:06;;;;;;;5.40;2.10;;;;;;;;;;5053403;28;20067;-79
2022/09/24 12:18:40;;;;;;;6.20;1.80;;;;;;;;;;5053435;28;20467;-79
2022/09/24 12:21:06;;;;;;;9.52;2.75;;;;;;;;;;5060903;28;20052;-79
2022/09/24 12:23:34;;;;;;;4.72;1.50;;;;;;;;;;5062486;28;20094;-79
2022/09/24 12:26:04;;;;;;;6.78;2.42;;;;;;;;;;5057213;28;20053;-79
2022/09/24 12:34:13;;;;;;;7.10;1.90;;;;;;;;;;5053776;28;20111;-78
2022/09/24 12:36:53;;;;;;;5.72;1.83;;;;;;;;;;5054291;28;20121;-79
2022/09/24 12:39:21;;;;;;;4.82;1.80;;;;;;;;;;5045688;28;20048;-79
2022/09/24 12:41:50;;;;;;;5.88;1.90;;;;;;;;;;5033230;28;20525;-79
2022/09/24 12:44:26;;;;;;;5.03;1.73;;;;;;;;;;5053700;28;20049;-81
2022/09/24 12:46:56;;;;;;;7.57;2.38;;;;;;;;;;5046646;28;20041;-78
2022/09/24 12:49:26;;;;;;;5.95;1.95;;;;;;;;;;5016003;28;20049;-78
2022/09/24 12:51:56;;;;;;;9.82;2.40;;;;;;;;;;5033833;28;20058;-80
2022/09/24 12:54:33;;;;;;;9.05;2.33;;;;;;;;;;5034066;28;20049;-79
2022/09/24 12:57:06;;;;;;;6.40;2.10;;;;;;;;;;5037018;28;20045;-79
2022/09/24 12:59:33;;;;;;;8.77;2.88;;;;;;;;;;5037056;28;20492;-79
2022/09/24 13:02:16;;;;;;;7.10;1.77;;;;;;;;;;5040843;28;20131;-79
2022/09/24 13:05:04;;;;;;;4.15;1.65;;;;;;;;;;5035323;28;20052;-78
2022/09/24 13:07:37;;;;;;;5.95;1.98;;;;;;;;;;5037873;28;20045;-79
2022/09/24 13:10:29;;;;;;;6.60;1.75;;;;;;;;;;5026002;28;20052;-79
2022/09/24 13:12:58;;;;;;;7.65;1.75;;;;;;;;;;5035143;28;20142;-78
2022/09/24 13:15:38;;;;;;;7.25;2.10;;;;;;;;;;5059215;28;20553;-78
2022/09/24 13:18:07;;;;;;;7.43;1.80;;;;;;;;;;5052225;28;20552;-78
2022/09/24 13:20:34;;;;;;;6.82;1.60;;;;;;;;;;5036917;28;20041;-78
2022/09/24 13:23:34;;;;;;;6.82;2.50;;;;;;;;;;5036782;28;20611;-78
2022/09/24 13:26:04;;;;;;;8.25;1.70;;;;;;;;;;5012287;28;20054;-78
2022/09/24 13:28:32;;;;;;;9.45;2.10;;;;;;;;;;5041666;28;20132;-80
2022/09/24 13:31:17;;;;;;;7.68;1.80;;;;;;;;;;5038305;28;20059;-80
2022/09/24 13:33:44;;;;;;;4.28;1.58;;;;;;;;;;5057898;28;20048;-78
2022/09/24 13:36:15;;;;;;;5.90;1.77;;;;;;;;;;5040792;28;20046;-78
2022/09/24 13:38:45;;;;;;;6.93;1.73;;;;;;;;;;5036195;28;20049;-78
2022/09/24 13:41:26;;;;;;;8.43;1.80;;;;;;;;;;5036785;28;20418;-78
2022/09/24 13:43:52;;;;;;;7.22;1.80;;;;;;;;;;5043799;28;20048;-78
2022/09/24 13:46:19;;;;;;;5.22;2.03;;;;;;;;;;5055228;28;20041;-77
2022/09/24 13:48:53;;;;;;;7.20;2.50;;;;;;;;;;5056759;28;20052;-78
2022/09/24 13:51:23;;;;;;;5.50;2.20;;;;;;;;;;5055684;28;20053;-78
2022/09/24 13:53:52;;;;;;;7.93;2.35;;;;;;;;;;5055909;28;20462;-77
2022/09/24 13:56:19;;;;;;;7.80;2.13;;;;;;;;;;5054015;28;20102;-78
2022/09/24 13:58:45;;;;;;;6.93;1.80;;;;;;;;;;5044853;28;20037;-78
2022/09/24 14:01:16;;;;;;;6.65;1.60;;;;;;;;;;5056479;28;20041;-78
2022/09/24 14:03:50;;;;;;;7.80;1.88;;;;;;;;;;5055914;28;20124;-77
2022/09/24 14:06:20;;;;;;;7.97;1.90;;;;;;;;;;5055752;28;20049;-78
2022/09/24 14:08:46;;;;;;;7.22;2.28;;;;;;;;;;5055837;28;20204;-77
2022/09/24 14:11:20;;;;;;;6.00;2.13;;;;;;;;;;5053324;28;20041;-77
2022/09/24 14:13:46;;;;;;;8.57;1.80;;;;;;;;;;5035542;28;20045;-78
2022/09/24 14:16:15;;;;;;;5.80;1.65;;;;;;;;;;5035509;28;20189;-78
2022/09/24 14:18:41;;;;;;;7.15;2.03;;;;;;;;;;5035733;28;20092;-78
2022/09/24 14:21:10;;;;;;;6.63;1.95;;;;;;;;;;5035904;28;20052;-78
2022/09/24 14:23:39;;;;;;;4.05;1.65;;;;;;;;;;5035677;28;20102;-77
2022/09/24 14:26:05;;;;;;;4.28;1.40;;;;;;;;;;5039007;28;20041;-78
2022/09/24 14:28:33;;;;;;;7.00;1.70;;;;;;;;;;5055440;28;20110;-78
2022/09/24 14:30:59;;;;;;;5.88;2.30;;;;;;;;;;5055175;28;20385;-78
2022/09/24 14:33:28;;;;;;;5.13;1.70;;;;;;;;;;5054743;28;20509;-78
2022/09/24 14:35:55;;;;;;;5.68;1.90;;;;;;;;;;5055107;28;20037;-78
2022/09/24 14:38:28;;;;;;;9.38;2.30;;;;;;;;;;5055733;28;20049;-77
2022/09/24 14:40:56;;;;;;;6.82;2.30;;;;;;;;;;5051754;28;20123;-78
2022/09/24 14:43:30;;;;;;;4.75;1.90;;;;;;;;;;5034673;28;20441;-78
2022/09/24 14:46:06;;;;;;;5.85;2.00;;;;;;;;;;5035143;28;20068;-78
2022/09/24 14:48:33;;;;;;;4.40;1.70;;;;;;;;;;5034921;28;20520;-78
2022/09/24 14:51:00;;;;;;;5.50;1.50;;;;;;;;;;5034752;28;20050;-78
2022/09/24 14:53:34;;;;;;;5.82;1.67;;;;;;;;;;5034633;28;20494;-77
2022/09/24 14:56:02;;;;;;;4.03;1.80;;;;;;;;;;5035206;28;20142;-78
2022/09/24 14:58:28;;;;;;;6.03;1.73;;;;;;;;;;5034759;28;20041;-78
2022/09/24 15:00:59;;;;;;;5.43;1.80;;;;;;;;;;5035174;28;20125;-78
2022/09/24 15:03:51;;;;;;;6.20;2.33;;;;;;;;;;5034627;28;20042;-77
2022/09/24 15:06:19;;;;;;;8.45;2.20;;;;;;;;;;5030127;28;20060;-77
2022/09/24 15:08:52;;;;;;;5.80;1.80;;;;;;;;;;5034465;28;20447;-77